createdAt,value
2023-08-15T00:01:30.316Z,25.52
2023-08-15T00:03:57.199Z,25.57
2023-08-15T00:06:24.198Z,25.58
2023-08-15T00:08:55.173Z,25.62
2023-08-15T00:11:23.146Z,25.71
2023-08-15T00:13:50.940Z,25.65
2023-08-15T00:16:18.055Z,25.67
2023-08-15T00:18:44.929Z,25.93
2023-08-15T00:21:12.809Z,25.92
2023-08-15T00:23:39.508Z,25.90
2023-08-15T00:26:06.249Z,25.85
2023-08-15T00:28:32.980Z,25.64
2023-08-15T00:31:00.144Z,25.44
2023-08-15T00:33:27.072Z,25.43
2023-08-15T00:35:54.843Z,25.35
2023-08-15T00:38:21.790Z,25.23
2023-08-15T00:40:48.559Z,25.20
2023-08-15T00:43:18.726Z,25.53
2023-08-15T00:45:46.236Z,25.44
2023-08-15T00:48:13.700Z,25.35
2023-08-15T00:50:44.137Z,25.17
2023-08-15T00:53:12.360Z,25.14
2023-08-15T00:55:39.864Z,25.09
2023-08-15T00:58:07.122Z,25.02
2023-08-15T01:00:34.196Z,24.96
2023-08-15T01:03:02.095Z,24.79
2023-08-15T01:05:30.615Z,24.87
2023-08-15T01:07:58.997Z,24.92
2023-08-15T01:10:26.549Z,24.98
2023-08-15T01:13:10.810Z,24.96
2023-08-15T01:15:46.357Z,25.01
2023-08-15T01:18:18.483Z,25.10
2023-08-15T01:20:47.759Z,25.06
2023-08-15T01:23:15.343Z,25.06
2023-08-15T01:25:43.738Z,24.97
2023-08-15T01:28:14.923Z,24.81
2023-08-15T01:31:21.747Z,24.80
2023-08-15T01:34:02.455Z,24.86
2023-08-15T01:36:37.081Z,24.95
2023-08-15T01:39:06.772Z,24.90
2023-08-15T01:41:38.865Z,24.86
2023-08-15T01:44:08.414Z,24.86
2023-08-15T01:46:35.413Z,24.75
2023-08-15T01:49:02.258Z,24.65
2023-08-15T01:51:29.365Z,24.41
2023-08-15T01:53:56.362Z,24.46
2023-08-15T01:56:25.564Z,24.58
2023-08-15T01:58:52.499Z,24.56
2023-08-15T02:01:19.478Z,24.48
2023-08-15T02:03:46.292Z,24.43
2023-08-15T02:06:13.035Z,24.60
2023-08-15T02:08:40.285Z,24.28
2023-08-15T02:11:07.274Z,24.77
2023-08-15T02:13:35.084Z,24.64
2023-08-15T02:16:02.597Z,24.43
2023-08-15T02:18:30.505Z,24.36
2023-08-15T02:20:57.414Z,24.34
2023-08-15T02:23:24.671Z,24.32
2023-08-15T02:25:51.742Z,24.23
2023-08-15T02:28:18.933Z,24.25
2023-08-15T02:30:46.035Z,24.35
2023-08-15T02:33:13.050Z,23.95
2023-08-15T02:35:41.749Z,24.07
2023-08-15T02:38:09.241Z,23.82
2023-08-15T02:40:38.944Z,23.95
2023-08-15T02:43:06.084Z,23.60
2023-08-15T02:45:33.247Z,23.54
2023-08-15T02:48:02.149Z,23.83
2023-08-15T02:50:30.115Z,23.66
2023-08-15T02:52:57.123Z,23.82
2023-08-15T02:55:23.905Z,23.98
2023-08-15T02:57:50.700Z,24.07
2023-08-15T03:00:17.594Z,24.22
2023-08-15T03:02:44.829Z,24.40
2023-08-15T03:05:11.855Z,24.56
2023-08-15T03:07:38.717Z,24.44
2023-08-15T03:10:05.961Z,24.41
2023-08-15T03:12:32.917Z,24.43
2023-08-15T03:15:01.018Z,24.42
2023-08-15T03:17:28.082Z,24.46
2023-08-15T03:19:55.910Z,24.50
2023-08-15T03:22:23.236Z,24.55
2023-08-15T03:24:50.202Z,24.55
2023-08-15T03:27:17.073Z,24.44
2023-08-15T03:29:44.334Z,24.38
2023-08-15T03:32:14.181Z,24.45
2023-08-15T03:34:41.040Z,24.38
2023-08-15T03:37:07.847Z,24.26
2023-08-15T03:39:35.025Z,24.35
2023-08-15T03:42:02.136Z,24.33
2023-08-15T03:44:28.891Z,24.40
2023-08-15T03:46:55.869Z,24.70
2023-08-15T03:49:22.797Z,24.57
2023-08-15T03:51:49.692Z,24.65
2023-08-15T03:54:18.031Z,24.66
2023-08-15T03:56:48.027Z,24.49
2023-08-15T03:59:14.863Z,24.74
2023-08-15T04:01:42.036Z,24.74
2023-08-15T04:04:09.621Z,24.31
2023-08-15T04:06:36.451Z,24.09
2023-08-15T04:09:03.654Z,23.66
2023-08-15T04:11:30.967Z,23.48
2023-08-15T04:13:59.276Z,23.60
2023-08-15T04:16:27.308Z,23.80
2023-08-15T04:18:54.095Z,24.01
2023-08-15T04:21:20.930Z,23.99
2023-08-15T04:23:47.793Z,24.02
2023-08-15T04:26:14.544Z,24.01
2023-08-15T04:28:41.541Z,24.12
2023-08-15T04:31:08.595Z,24.28
2023-08-15T04:33:35.305Z,24.21
2023-08-15T04:36:02.443Z,24.05
2023-08-15T04:38:29.399Z,24.03
2023-08-15T04:40:59.218Z,23.96
2023-08-15T04:43:28.014Z,24.06
2023-08-15T04:45:54.785Z,24.09
2023-08-15T04:48:21.908Z,23.92
2023-08-15T04:50:51.924Z,23.68
2023-08-15T04:53:18.884Z,24.07
2023-08-15T04:55:46.009Z,24.08
2023-08-15T04:58:12.807Z,24.24
2023-08-15T05:00:39.541Z,24.26
2023-08-15T05:03:06.473Z,24.18
2023-08-15T05:05:33.504Z,24.10
2023-08-15T05:08:00.760Z,24.06
2023-08-15T05:10:28.050Z,24.08
2023-08-15T05:12:57.594Z,24.22
2023-08-15T05:15:25.092Z,24.20
2023-08-15T05:17:52.180Z,24.26
2023-08-15T05:20:19.315Z,24.43
2023-08-15T05:22:46.080Z,24.46
2023-08-15T05:25:13.650Z,24.49
2023-08-15T05:27:47.070Z,24.74
2023-08-15T05:30:14.803Z,24.70
2023-08-15T05:32:41.660Z,24.87
2023-08-15T05:35:09.449Z,24.67
2023-08-15T05:37:36.328Z,24.74
2023-08-15T05:40:05.033Z,24.92
2023-08-15T05:42:32.484Z,24.96
2023-08-15T05:44:59.366Z,24.85
2023-08-15T05:47:26.231Z,24.87
2023-08-15T05:49:53.689Z,25.02
2023-08-15T05:52:20.526Z,25.03
2023-08-15T05:54:47.355Z,24.96
2023-08-15T05:57:14.205Z,24.97
2023-08-15T05:59:41.006Z,24.99
2023-08-15T06:02:08.025Z,25.03
2023-08-15T06:04:36.528Z,25.08
2023-08-15T06:07:03.801Z,25.17
2023-08-15T06:09:30.958Z,25.16
2023-08-15T06:11:57.666Z,25.26
2023-08-15T06:14:24.567Z,25.11
2023-08-15T06:16:51.490Z,25.27
2023-08-15T06:19:19.280Z,25.22
2023-08-15T06:21:45.958Z,25.17
2023-08-15T06:24:13.766Z,25.38
2023-08-15T06:26:43.458Z,25.61
2023-08-15T06:29:10.865Z,25.77
2023-08-15T06:31:37.617Z,25.83
2023-08-15T06:34:07.260Z,25.95
2023-08-15T06:36:35.273Z,25.90
2023-08-15T06:39:02.235Z,25.87
2023-08-15T06:41:29.019Z,26.02
2023-08-15T06:43:56.987Z,26.18
2023-08-15T06:46:23.961Z,26.42
2023-08-15T06:48:50.772Z,26.21
2023-08-15T06:51:17.892Z,26.41
2023-08-15T06:53:47.592Z,26.73
2023-08-15T06:56:14.628Z,26.41
2023-08-15T06:58:41.454Z,26.58
2023-08-15T07:01:09.921Z,26.66
2023-08-15T07:03:36.773Z,26.89
2023-08-15T07:06:05.284Z,26.98
2023-08-15T07:08:33.030Z,27.28
2023-08-15T07:11:00.690Z,27.10
2023-08-15T07:13:27.526Z,27.36
2023-08-15T07:15:58.306Z,26.78
2023-08-15T07:18:25.707Z,27.37
2023-08-15T07:20:52.854Z,27.35
2023-08-15T07:23:21.539Z,27.44
2023-08-15T07:25:48.699Z,27.35
2023-08-15T07:28:15.551Z,27.21
2023-08-15T07:30:46.336Z,27.39
2023-08-15T07:33:14.883Z,27.45
2023-08-15T07:35:42.776Z,27.64
2023-08-15T07:38:09.657Z,27.19
2023-08-15T07:40:36.487Z,27.06
2023-08-15T07:43:03.325Z,26.99
2023-08-15T07:45:30.894Z,26.78
2023-08-15T07:47:59.530Z,26.51
2023-08-15T07:50:29.789Z,26.67
2023-08-15T07:53:00.647Z,26.72
2023-08-15T07:55:30.457Z,26.77
2023-08-15T07:57:59.154Z,27.50
2023-08-15T08:00:26.214Z,27.84
2023-08-15T08:02:53.501Z,28.10
2023-08-15T08:05:23.388Z,27.64
2023-08-15T08:07:50.958Z,27.82
2023-08-15T08:10:18.084Z,28.34
2023-08-15T08:12:47.088Z,28.75
2023-08-15T08:15:14.839Z,28.42
2023-08-15T08:17:41.847Z,27.61
2023-08-15T08:20:13.149Z,27.54
2023-08-15T08:22:40.456Z,26.88
2023-08-15T08:25:18.014Z,26.78
2023-08-15T08:27:47.404Z,26.29
2023-08-15T08:30:15.305Z,26.61
2023-08-15T08:32:42.362Z,27.03
2023-08-15T08:35:09.578Z,27.02
2023-08-15T08:37:36.485Z,27.14
2023-08-15T08:40:06.835Z,27.91
2023-08-15T08:42:35.056Z,28.24
2023-08-15T08:45:03.572Z,28.47
2023-08-15T08:47:34.251Z,28.80
2023-08-15T08:50:01.820Z,28.13
2023-08-15T08:52:32.017Z,28.27
2023-08-15T08:54:58.841Z,28.64
2023-08-15T08:57:33.994Z,28.69
2023-08-15T09:00:02.264Z,28.64
2023-08-15T09:02:31.924Z,28.30
2023-08-15T09:04:59.505Z,28.25
2023-08-15T09:07:26.256Z,28.29
2023-08-15T09:09:52.981Z,28.64
2023-08-15T09:12:40.082Z,28.52
2023-08-15T09:15:09.818Z,28.79
2023-08-15T09:17:38.883Z,29.11
2023-08-15T09:20:23.925Z,28.98
2023-08-15T09:22:51.822Z,28.92
2023-08-15T09:25:19.092Z,28.77
2023-08-15T09:27:47.242Z,28.95
2023-08-15T09:30:16.223Z,28.79
2023-08-15T09:32:44.830Z,28.75
2023-08-15T09:35:13.687Z,29.14
2023-08-15T09:37:45.379Z,28.88
2023-08-15T09:40:18.233Z,28.51
2023-08-15T09:42:47.576Z,28.00
2023-08-15T09:45:16.328Z,28.14
2023-08-15T09:47:44.750Z,28.27
2023-08-15T09:50:13.725Z,28.25
2023-08-15T09:52:42.174Z,28.30
2023-08-15T09:55:11.161Z,28.47
2023-08-15T09:57:43.414Z,28.82
2023-08-15T10:00:18.800Z,28.30
2023-08-15T10:02:58.304Z,28.23
2023-08-15T10:05:29.533Z,28.54
2023-08-15T10:07:58.672Z,28.17
2023-08-15T10:10:28.074Z,28.25
2023-08-15T10:12:55.565Z,28.23
2023-08-15T10:15:23.598Z,27.97
2023-08-15T10:17:51.254Z,27.98
2023-08-15T10:20:22.066Z,28.07
2023-08-15T10:22:55.467Z,28.30
2023-08-15T10:25:25.291Z,28.14
2023-08-15T10:27:54.146Z,28.29
2023-08-15T10:30:31.621Z,28.65
2023-08-15T10:33:12.555Z,28.66
2023-08-15T10:35:47.827Z,28.74
2023-08-15T10:38:16.927Z,29.09
2023-08-15T10:40:45.835Z,29.28
2023-08-15T10:43:14.086Z,29.00
2023-08-15T10:45:43.655Z,28.43
2023-08-15T10:48:11.206Z,28.70
2023-08-15T10:50:44.842Z,28.33
2023-08-15T10:53:11.793Z,28.64
2023-08-15T10:55:39.777Z,28.85
2023-08-15T10:58:11.874Z,28.82
2023-08-15T11:00:40.808Z,28.84
2023-08-15T11:03:08.325Z,28.90
2023-08-15T11:05:35.630Z,28.89
2023-08-15T11:08:16.244Z,28.65
2023-08-15T11:10:49.344Z,28.52
2023-08-15T11:13:17.978Z,28.31
2023-08-15T11:15:46.196Z,28.19
2023-08-15T11:18:22.069Z,28.06
2023-08-15T11:20:49.901Z,27.70
2023-08-15T11:23:16.757Z,27.92
2023-08-15T11:25:43.647Z,27.85
2023-08-15T11:28:10.692Z,27.63
2023-08-15T11:30:37.719Z,27.84
2023-08-15T11:33:06.222Z,27.91
2023-08-15T11:35:33.041Z,27.74
2023-08-15T11:38:01.751Z,27.51
2023-08-15T11:40:28.821Z,27.26
2023-08-15T11:42:55.581Z,27.41
2023-08-15T11:45:24.323Z,27.40
2023-08-15T11:48:00.996Z,27.26
2023-08-15T11:50:44.280Z,27.15
2023-08-15T11:53:17.152Z,27.49
2023-08-15T11:55:46.329Z,27.66
2023-08-15T11:58:33.852Z,27.61
2023-08-15T12:01:08.852Z,27.89
2023-08-15T12:03:36.257Z,28.15
2023-08-15T12:06:07.572Z,28.31
2023-08-15T12:08:36.289Z,28.18
2023-08-15T12:11:09.157Z,28.29
2023-08-15T12:13:40.872Z,28.54
2023-08-15T12:16:09.899Z,28.33
2023-08-15T12:18:37.816Z,28.25
2023-08-15T12:21:05.929Z,28.04
2023-08-15T12:23:32.984Z,28.31
2023-08-15T12:25:59.688Z,28.28
2023-08-15T12:28:29.250Z,28.24
2023-08-15T12:30:56.609Z,28.36
2023-08-15T12:33:39.186Z,28.56
2023-08-15T12:36:08.064Z,28.66
2023-08-15T12:38:35.057Z,28.36
2023-08-15T12:41:01.915Z,28.61
2023-08-15T12:43:28.732Z,28.48
2023-08-15T12:45:56.028Z,28.24
2023-08-15T12:48:22.925Z,28.33
2023-08-15T12:50:51.161Z,28.39
2023-08-15T12:53:18.122Z,28.34
2023-08-15T12:55:46.427Z,28.11
2023-08-15T12:58:13.200Z,28.46
2023-08-15T13:00:42.725Z,28.26
2023-08-15T13:03:10.593Z,28.47
2023-08-15T13:05:37.586Z,28.06
2023-08-15T13:08:04.691Z,28.29
2023-08-15T13:10:31.605Z,28.36
2023-08-15T13:12:58.459Z,28.63
2023-08-15T13:15:25.630Z,28.76
2023-08-15T13:17:52.716Z,28.84
2023-08-15T13:20:19.517Z,28.34
2023-08-15T13:22:46.269Z,28.46
2023-08-15T13:25:13.039Z,28.58
2023-08-15T13:27:39.835Z,29.02
2023-08-15T13:30:07.466Z,29.07
2023-08-15T13:32:34.336Z,28.95
2023-08-15T13:35:01.521Z,29.10
2023-08-15T13:37:30.993Z,29.11
2023-08-15T13:39:58.759Z,29.00
2023-08-15T13:44:55.721Z,29.02
2023-08-15T13:47:22.771Z,29.04
2023-08-15T13:49:49.900Z,29.19
2023-08-15T13:52:16.627Z,29.02
2023-08-15T13:54:43.578Z,28.59
2023-08-15T13:57:10.428Z,28.89
2023-08-15T13:59:37.103Z,28.93
2023-08-15T14:02:04.261Z,28.95
2023-08-15T14:04:32.685Z,28.80
2023-08-15T14:07:00.034Z,28.71
2023-08-15T14:09:26.967Z,28.74
2023-08-15T14:11:54.083Z,28.48
2023-08-15T14:14:20.855Z,28.50
2023-08-15T14:16:50.601Z,28.32
2023-08-15T14:19:17.435Z,28.26
2023-08-15T14:21:45.053Z,27.83
2023-08-15T14:24:11.878Z,28.31
2023-08-15T14:26:38.668Z,28.54
2023-08-15T14:29:05.428Z,28.38
2023-08-15T14:31:32.546Z,28.67
2023-08-15T14:33:59.400Z,28.85
2023-08-15T14:36:26.463Z,29.22
2023-08-15T14:38:54.218Z,29.47
2023-08-15T14:41:21.427Z,28.90
2023-08-15T14:43:48.516Z,29.16
2023-08-15T14:46:16.403Z,29.14
2023-08-15T14:48:43.317Z,29.62
2023-08-15T14:51:10.774Z,30.22
2023-08-15T14:53:37.621Z,30.58
2023-08-15T14:56:04.680Z,29.86
2023-08-15T14:58:31.780Z,29.67
2023-08-15T15:00:58.849Z,28.85
2023-08-15T15:03:26.000Z,28.81
2023-08-15T15:05:52.946Z,28.51
2023-08-15T15:08:20.641Z,28.24
2023-08-15T15:10:54.929Z,28.27
2023-08-15T15:13:21.976Z,28.17
2023-08-15T15:15:54.124Z,27.92
2023-08-15T15:18:26.530Z,27.70
2023-08-15T15:20:53.877Z,27.71
2023-08-15T15:23:21.064Z,27.74
2023-08-15T15:25:51.897Z,27.49
2023-08-15T15:28:18.765Z,27.64
2023-08-15T15:30:45.928Z,27.38
2023-08-15T15:33:12.642Z,27.47
2023-08-15T15:35:39.762Z,27.41
2023-08-15T15:38:06.567Z,27.49
2023-08-15T15:40:33.420Z,27.45
2023-08-15T15:43:00.145Z,27.43
2023-08-15T15:45:26.889Z,27.36
2023-08-15T15:47:53.827Z,27.27
2023-08-15T15:50:21.201Z,27.41
2023-08-15T15:52:48.887Z,27.24
2023-08-15T15:55:20.784Z,27.29
2023-08-15T15:57:48.268Z,27.23
2023-08-15T16:00:17.131Z,27.21
2023-08-15T16:02:44.122Z,27.34
2023-08-15T16:05:11.727Z,27.25
2023-08-15T16:07:38.956Z,27.07
2023-08-15T16:10:06.977Z,27.25
2023-08-15T16:12:33.974Z,27.17
2023-08-15T16:15:01.624Z,27.34
2023-08-15T16:17:29.270Z,27.30
2023-08-15T16:19:56.740Z,27.34
2023-08-15T16:22:24.048Z,27.18
2023-08-15T16:24:51.502Z,27.15
2023-08-15T16:27:18.327Z,27.29
2023-08-15T16:29:45.029Z,27.10
2023-08-15T16:32:14.125Z,27.13
2023-08-15T16:34:43.475Z,27.11
2023-08-15T16:37:10.257Z,27.20
2023-08-15T16:39:37.080Z,27.17
2023-08-15T16:42:04.069Z,27.43
2023-08-15T16:44:30.852Z,27.28
2023-08-15T16:46:57.793Z,27.13
2023-08-15T16:49:25.255Z,27.16
2023-08-15T16:51:52.088Z,27.11
2023-08-15T16:54:18.939Z,27.13
2023-08-15T16:56:45.778Z,27.07
2023-08-15T16:59:13.024Z,27.06
2023-08-15T17:01:39.953Z,26.91
2023-08-15T17:04:06.910Z,27.09
2023-08-15T17:06:33.811Z,27.08
2023-08-15T17:09:00.585Z,26.78
2023-08-15T17:11:27.601Z,26.68
2023-08-15T17:13:54.511Z,26.69
2023-08-15T17:16:21.317Z,26.80
2023-08-15T17:18:48.118Z,26.93
2023-08-15T17:21:14.861Z,26.87
2023-08-15T17:23:41.853Z,26.98
2023-08-15T17:26:08.689Z,26.72
2023-08-15T17:28:35.731Z,26.78
2023-08-15T17:31:02.511Z,27.04
2023-08-15T17:33:29.321Z,27.06
2023-08-15T17:35:56.555Z,26.77
2023-08-15T17:38:23.434Z,26.63
2023-08-15T17:40:50.235Z,26.66
2023-08-15T17:43:16.978Z,26.50
2023-08-15T17:45:43.814Z,26.43
2023-08-15T17:48:10.969Z,26.62
2023-08-15T17:50:37.844Z,26.46
2023-08-15T17:53:04.774Z,26.42
2023-08-15T17:55:31.646Z,26.17
2023-08-15T17:57:58.463Z,26.01
2023-08-15T18:00:25.935Z,26.13
2023-08-15T18:02:52.822Z,26.02
2023-08-15T18:05:20.112Z,26.09
2023-08-15T18:07:47.368Z,26.14
2023-08-15T18:10:15.559Z,26.27
2023-08-15T18:12:42.413Z,26.25
2023-08-15T18:15:11.395Z,26.31
2023-08-15T18:17:38.362Z,26.21
2023-08-15T18:20:05.966Z,26.03
2023-08-15T18:22:32.863Z,26.22
2023-08-15T18:24:59.777Z,26.09
2023-08-15T18:27:26.622Z,26.14
2023-08-15T18:29:53.498Z,26.03
2023-08-15T18:32:20.568Z,26.23
2023-08-15T18:34:47.700Z,26.18
2023-08-15T18:37:14.771Z,26.08
2023-08-15T18:39:41.772Z,25.88
2023-08-15T18:42:08.687Z,25.93
2023-08-15T18:44:35.544Z,25.77
2023-08-15T18:47:03.517Z,25.80
2023-08-15T18:49:31.272Z,25.62
2023-08-15T18:52:12.681Z,25.65
2023-08-15T18:54:39.461Z,25.70
2023-08-15T18:57:06.328Z,25.67
2023-08-15T18:59:33.117Z,25.57
2023-08-15T19:01:59.877Z,25.56
2023-08-15T19:04:26.611Z,25.45
2023-08-15T19:06:53.405Z,25.35
2023-08-15T19:09:22.251Z,25.50
2023-08-15T19:11:49.274Z,25.66
2023-08-15T19:14:16.216Z,25.85
2023-08-15T19:16:43.046Z,25.63
2023-08-15T19:19:09.820Z,25.61
2023-08-15T19:21:36.725Z,25.58
2023-08-15T19:24:03.817Z,25.61
2023-08-15T19:26:30.564Z,25.60
2023-08-15T19:28:58.561Z,25.60
2023-08-15T19:31:25.609Z,25.49
2023-08-15T19:33:52.560Z,25.58
2023-08-15T19:36:19.642Z,25.55
2023-08-15T19:38:46.960Z,25.53
2023-08-15T19:41:14.629Z,25.38
2023-08-15T19:43:41.905Z,25.47
2023-08-15T19:46:09.170Z,25.58
2023-08-15T19:48:36.661Z,25.65
2023-08-15T19:51:05.000Z,25.58
2023-08-15T19:53:32.023Z,25.84
2023-08-15T19:55:58.925Z,25.61
2023-08-15T19:58:26.022Z,25.55
2023-08-15T20:00:54.459Z,25.61
2023-08-15T20:03:21.711Z,25.45
2023-08-15T20:05:49.706Z,25.25
2023-08-15T20:08:16.665Z,25.21
2023-08-15T20:10:43.605Z,25.31
2023-08-15T20:13:10.390Z,25.33
2023-08-15T20:15:40.460Z,25.35
2023-08-15T20:18:08.669Z,25.33
2023-08-15T20:20:35.612Z,25.26
2023-08-15T20:23:02.497Z,25.14
2023-08-15T20:25:29.850Z,25.16
2023-08-15T20:27:57.801Z,25.09
2023-08-15T20:30:24.967Z,24.97
2023-08-15T20:32:51.900Z,24.66
2023-08-15T20:35:18.740Z,24.64
2023-08-15T20:37:45.982Z,24.87
2023-08-15T20:40:13.039Z,24.97
2023-08-15T20:42:39.873Z,24.88
2023-08-15T20:45:07.245Z,24.87
2023-08-15T20:47:35.031Z,25.04
2023-08-15T20:50:02.040Z,25.15
2023-08-15T20:52:31.733Z,25.22
2023-08-15T20:54:58.796Z,25.25
2023-08-15T20:57:25.912Z,25.31
2023-08-15T20:59:52.947Z,25.22
2023-08-15T21:02:20.008Z,25.09
2023-08-15T21:04:46.982Z,25.26
2023-08-15T21:07:13.888Z,25.37
2023-08-15T21:09:40.951Z,25.42
2023-08-15T21:12:08.190Z,25.42
2023-08-15T21:14:34.972Z,25.12
2023-08-15T21:17:02.757Z,25.22
2023-08-15T21:19:29.636Z,25.50
2023-08-15T21:21:56.691Z,25.71
2023-08-15T21:24:23.582Z,25.34
2023-08-15T21:26:50.502Z,25.36
2023-08-15T21:29:17.596Z,25.38
2023-08-15T21:31:44.675Z,25.34
2023-08-15T21:34:12.062Z,25.39
2023-08-15T21:36:38.957Z,25.49
2023-08-15T21:39:05.999Z,25.36
2023-08-15T21:41:32.837Z,25.19
2023-08-15T21:44:00.183Z,24.91
2023-08-15T21:46:27.536Z,24.82
2023-08-15T21:48:55.063Z,25.08
2023-08-15T21:51:22.071Z,24.94
2023-08-15T21:53:48.955Z,24.73
2023-08-15T21:56:15.767Z,24.63
2023-08-15T21:58:42.596Z,24.67
2023-08-15T22:01:09.388Z,24.54
2023-08-15T22:03:37.460Z,24.61
2023-08-15T22:06:04.493Z,24.56
2023-08-15T22:08:31.323Z,24.52
2023-08-15T22:10:58.053Z,24.59
2023-08-15T22:13:24.856Z,24.35
2023-08-15T22:15:51.686Z,24.44
2023-08-15T22:18:21.043Z,24.75
2023-08-15T22:20:49.433Z,24.81
2023-08-15T22:23:16.386Z,24.98
2023-08-15T22:25:48.012Z,24.96
2023-08-15T22:28:16.289Z,24.70
2023-08-15T22:30:44.548Z,24.47
2023-08-15T22:33:11.426Z,24.58
2023-08-15T22:35:42.789Z,24.57
2023-08-15T22:38:10.200Z,24.65
2023-08-15T22:40:37.305Z,24.56
2023-08-15T22:43:05.384Z,24.32
2023-08-15T22:45:32.400Z,24.42
2023-08-15T22:47:59.527Z,24.83
2023-08-15T22:50:26.820Z,24.96
2023-08-15T22:52:57.282Z,24.69
2023-08-15T22:55:24.308Z,24.68
2023-08-15T22:57:51.389Z,24.62
2023-08-15T23:00:18.598Z,24.45
2023-08-15T23:02:45.461Z,24.59
2023-08-15T23:05:12.365Z,24.79
2023-08-15T23:07:39.679Z,24.97
2023-08-15T23:10:07.442Z,24.77
2023-08-15T23:12:34.140Z,24.61
2023-08-15T23:15:01.339Z,24.50
2023-08-15T23:17:28.781Z,24.69
2023-08-15T23:19:55.613Z,24.88
2023-08-15T23:22:22.442Z,24.84
2023-08-15T23:24:49.269Z,24.75
2023-08-15T23:27:16.486Z,24.82
2023-08-15T23:29:45.524Z,24.68
2023-08-15T23:32:12.378Z,24.71
2023-08-15T23:34:39.247Z,24.68
2023-08-15T23:37:06.577Z,24.44
2023-08-15T23:39:33.547Z,24.32
2023-08-15T23:42:00.318Z,24.12
2023-08-15T23:44:27.284Z,24.38
2023-08-15T23:46:54.186Z,24.46
2023-08-15T23:49:21.365Z,24.52
2023-08-15T23:51:48.916Z,24.43
2023-08-15T23:54:15.818Z,24.18
2023-08-15T23:56:42.550Z,23.91
2023-08-15T23:59:10.685Z,23.80
